sensor_id;sensor_type;location;lat;lon;timestamp;P1;durP1;ratioP1;P2;durP2;ratioP2
11677;SDS011;5895;41.950;24.372;2023-07-13T00:00:50;7.47;;;4.90;;
11677;SDS011;5895;41.950;24.372;2023-07-13T00:03:17;5.30;;;4.80;;
11677;SDS011;5895;41.950;24.372;2023-07-13T00:05:44;6.65;;;4.72;;
11677;SDS011;5895;41.950;24.372;2023-07-13T00:08:13;11.23;;;4.97;;
11677;SDS011;5895;41.950;24.372;2023-07-13T00:10:41;10.40;;;5.20;;
11677;SDS011;5895;41.950;24.372;2023-07-13T00:13:11;6.20;;;4.80;;
11677;SDS011;5895;41.950;24.372;2023-07-13T00:15:40;5.57;;;4.80;;
11677;SDS011;5895;41.950;24.372;2023-07-13T00:18:07;9.73;;;4.78;;
11677;SDS011;5895;41.950;24.372;2023-07-13T00:20:35;5.43;;;4.88;;
11677;SDS011;5895;41.950;24.372;2023-07-13T00:23:02;8.20;;;4.75;;
11677;SDS011;5895;41.950;24.372;2023-07-13T00:25:29;6.63;;;4.60;;
11677;SDS011;5895;41.950;24.372;2023-07-13T00:27:57;5.50;;;4.88;;
11677;SDS011;5895;41.950;24.372;2023-07-13T00:30:24;7.80;;;4.60;;
11677;SDS011;5895;41.950;24.372;2023-07-13T00:32:53;5.72;;;5.13;;
11677;SDS011;5895;41.950;24.372;2023-07-13T00:35:20;5.82;;;5.00;;
11677;SDS011;5895;41.950;24.372;2023-07-13T00:37:48;8.15;;;5.13;;
11677;SDS011;5895;41.950;24.372;2023-07-13T00:40:16;6.32;;;5.30;;
11677;SDS011;5895;41.950;24.372;2023-07-13T00:42:45;5.70;;;5.20;;
11677;SDS011;5895;41.950;24.372;2023-07-13T00:48:19;7.80;;;5.45;;
11677;SDS011;5895;41.950;24.372;2023-07-13T00:50:49;8.35;;;5.20;;
11677;SDS011;5895;41.950;24.372;2023-07-13T00:53:19;6.60;;;4.85;;
11677;SDS011;5895;41.950;24.372;2023-07-13T00:55:47;5.95;;;4.97;;
11677;SDS011;5895;41.950;24.372;2023-07-13T00:58:16;5.20;;;4.70;;
11677;SDS011;5895;41.950;24.372;2023-07-13T01:00:44;8.15;;;5.38;;
11677;SDS011;5895;41.950;24.372;2023-07-13T01:03:16;6.68;;;5.00;;
11677;SDS011;5895;41.950;24.372;2023-07-13T01:05:45;6.47;;;5.35;;
11677;SDS011;5895;41.950;24.372;2023-07-13T01:08:15;6.00;;;5.22;;
11677;SDS011;5895;41.950;24.372;2023-07-13T01:10:50;6.55;;;5.30;;
11677;SDS011;5895;41.950;24.372;2023-07-13T01:13:18;6.25;;;5.30;;
11677;SDS011;5895;41.950;24.372;2023-07-13T01:15:46;7.75;;;5.28;;
11677;SDS011;5895;41.950;24.372;2023-07-13T01:18:15;5.78;;;5.10;;
11677;SDS011;5895;41.950;24.372;2023-07-13T01:20:49;5.53;;;5.05;;
11677;SDS011;5895;41.950;24.372;2023-07-13T01:23:17;5.90;;;5.30;;
11677;SDS011;5895;41.950;24.372;2023-07-13T01:25:45;6.78;;;5.30;;
11677;SDS011;5895;41.950;24.372;2023-07-13T01:28:13;14.93;;;9.18;;
11677;SDS011;5895;41.950;24.372;2023-07-13T01:30:42;9.23;;;7.57;;
11677;SDS011;5895;41.950;24.372;2023-07-13T01:33:12;8.18;;;6.57;;
11677;SDS011;5895;41.950;24.372;2023-07-13T01:35:40;6.70;;;6.10;;
11677;SDS011;5895;41.950;24.372;2023-07-13T01:38:09;7.03;;;5.60;;
11677;SDS011;5895;41.950;24.372;2023-07-13T01:40:37;8.82;;;6.30;;
11677;SDS011;5895;41.950;24.372;2023-07-13T01:43:05;8.40;;;5.78;;
11677;SDS011;5895;41.950;24.372;2023-07-13T01:45:32;7.30;;;6.13;;
11677;SDS011;5895;41.950;24.372;2023-07-13T01:48:00;7.15;;;5.97;;
11677;SDS011;5895;41.950;24.372;2023-07-13T01:50:27;6.25;;;5.65;;
11677;SDS011;5895;41.950;24.372;2023-07-13T01:52:55;6.50;;;5.80;;
11677;SDS011;5895;41.950;24.372;2023-07-13T01:55:23;7.28;;;6.03;;
11677;SDS011;5895;41.950;24.372;2023-07-13T01:57:51;6.93;;;6.20;;
11677;SDS011;5895;41.950;24.372;2023-07-13T02:00:18;6.38;;;5.88;;
11677;SDS011;5895;41.950;24.372;2023-07-13T02:02:45;7.35;;;6.47;;
11677;SDS011;5895;41.950;24.372;2023-07-13T02:05:13;8.45;;;6.45;;
11677;SDS011;5895;41.950;24.372;2023-07-13T02:07:40;7.15;;;6.32;;
11677;SDS011;5895;41.950;24.372;2023-07-13T02:10:08;10.32;;;6.47;;
11677;SDS011;5895;41.950;24.372;2023-07-13T02:12:38;7.40;;;6.43;;
11677;SDS011;5895;41.950;24.372;2023-07-13T02:15:07;9.45;;;6.32;;
11677;SDS011;5895;41.950;24.372;2023-07-13T02:17:35;7.97;;;6.30;;
11677;SDS011;5895;41.950;24.372;2023-07-13T02:20:03;7.30;;;6.38;;
11677;SDS011;5895;41.950;24.372;2023-07-13T02:22:32;8.75;;;6.68;;
11677;SDS011;5895;41.950;24.372;2023-07-13T02:24:59;8.18;;;6.13;;
11677;SDS011;5895;41.950;24.372;2023-07-13T02:27:27;7.65;;;6.22;;
11677;SDS011;5895;41.950;24.372;2023-07-13T02:29:55;6.93;;;6.22;;
11677;SDS011;5895;41.950;24.372;2023-07-13T02:32:23;7.00;;;6.22;;
11677;SDS011;5895;41.950;24.372;2023-07-13T02:34:51;7.78;;;6.45;;
11677;SDS011;5895;41.950;24.372;2023-07-13T02:37:19;8.80;;;6.80;;
11677;SDS011;5895;41.950;24.372;2023-07-13T02:39:46;6.80;;;6.20;;
11677;SDS011;5895;41.950;24.372;2023-07-13T02:42:14;7.88;;;6.30;;
11677;SDS011;5895;41.950;24.372;2023-07-13T02:44:41;7.45;;;6.65;;
11677;SDS011;5895;41.950;24.372;2023-07-13T02:47:10;7.40;;;6.53;;
11677;SDS011;5895;41.950;24.372;2023-07-13T02:49:38;8.10;;;7.10;;
11677;SDS011;5895;41.950;24.372;2023-07-13T02:52:06;7.53;;;6.72;;
11677;SDS011;5895;41.950;24.372;2023-07-13T02:54:33;9.43;;;6.40;;
11677;SDS011;5895;41.950;24.372;2023-07-13T02:57:00;10.35;;;6.30;;
11677;SDS011;5895;41.950;24.372;2023-07-13T02:59:28;8.15;;;6.47;;
11677;SDS011;5895;41.950;24.372;2023-07-13T03:01:55;8.52;;;7.30;;
11677;SDS011;5895;41.950;24.372;2023-07-13T03:04:24;7.78;;;6.50;;
11677;SDS011;5895;41.950;24.372;2023-07-13T03:06:51;8.00;;;6.82;;
11677;SDS011;5895;41.950;24.372;2023-07-13T03:09:23;7.70;;;6.90;;
11677;SDS011;5895;41.950;24.372;2023-07-13T03:11:52;9.35;;;7.10;;
11677;SDS011;5895;41.950;24.372;2023-07-13T03:14:20;8.70;;;6.32;;
11677;SDS011;5895;41.950;24.372;2023-07-13T03:16:47;8.30;;;7.50;;
11677;SDS011;5895;41.950;24.372;2023-07-13T03:19:15;7.63;;;6.93;;
11677;SDS011;5895;41.950;24.372;2023-07-13T03:21:44;8.45;;;6.65;;
11677;SDS011;5895;41.950;24.372;2023-07-13T03:24:11;8.57;;;7.43;;
11677;SDS011;5895;41.950;24.372;2023-07-13T03:26:39;8.98;;;8.07;;
11677;SDS011;5895;41.950;24.372;2023-07-13T03:29:06;6.90;;;6.20;;
11677;SDS011;5895;41.950;24.372;2023-07-13T03:31:34;8.75;;;7.50;;
11677;SDS011;5895;41.950;24.372;2023-07-13T03:34:03;8.05;;;6.78;;
11677;SDS011;5895;41.950;24.372;2023-07-13T03:36:30;9.30;;;6.93;;
11677;SDS011;5895;41.950;24.372;2023-07-13T03:39:01;7.55;;;6.82;;
11677;SDS011;5895;41.950;24.372;2023-07-13T03:41:33;9.65;;;8.68;;
11677;SDS011;5895;41.950;24.372;2023-07-13T03:44:01;7.75;;;6.93;;
11677;SDS011;5895;41.950;24.372;2023-07-13T03:46:28;8.30;;;6.78;;
11677;SDS011;5895;41.950;24.372;2023-07-13T03:48:56;7.45;;;6.75;;
11677;SDS011;5895;41.950;24.372;2023-07-13T03:51:23;7.55;;;6.78;;
11677;SDS011;5895;41.950;24.372;2023-07-13T03:53:51;7.40;;;6.68;;
11677;SDS011;5895;41.950;24.372;2023-07-13T03:56:20;7.95;;;6.63;;
11677;SDS011;5895;41.950;24.372;2023-07-13T03:58:48;9.35;;;6.25;;
11677;SDS011;5895;41.950;24.372;2023-07-13T04:01:17;9.95;;;8.43;;
11677;SDS011;5895;41.950;24.372;2023-07-13T04:03:46;8.38;;;7.57;;
11677;SDS011;5895;41.950;24.372;2023-07-13T04:06:15;9.50;;;7.10;;
11677;SDS011;5895;41.950;24.372;2023-07-13T04:08:46;7.65;;;6.70;;
11677;SDS011;5895;41.950;24.372;2023-07-13T04:11:15;7.15;;;6.47;;
11677;SDS011;5895;41.950;24.372;2023-07-13T04:13:44;7.95;;;7.15;;
11677;SDS011;5895;41.950;24.372;2023-07-13T04:16:12;7.72;;;7.03;;
11677;SDS011;5895;41.950;24.372;2023-07-13T04:18:40;7.80;;;6.90;;
11677;SDS011;5895;41.950;24.372;2023-07-13T04:21:07;7.35;;;6.68;;
11677;SDS011;5895;41.950;24.372;2023-07-13T04:23:36;9.77;;;7.00;;
11677;SDS011;5895;41.950;24.372;2023-07-13T04:26:05;9.27;;;6.65;;
11677;SDS011;5895;41.950;24.372;2023-07-13T04:28:33;7.57;;;6.85;;
11677;SDS011;5895;41.950;24.372;2023-07-13T04:31:02;6.60;;;6.00;;
11677;SDS011;5895;41.950;24.372;2023-07-13T04:33:30;7.00;;;6.30;;
11677;SDS011;5895;41.950;24.372;2023-07-13T04:35:58;7.80;;;6.97;;
11677;SDS011;5895;41.950;24.372;2023-07-13T04:38:28;7.30;;;6.55;;
11677;SDS011;5895;41.950;24.372;2023-07-13T04:40:57;9.15;;;6.82;;
11677;SDS011;5895;41.950;24.372;2023-07-13T04:43:26;8.50;;;6.80;;
11677;SDS011;5895;41.950;24.372;2023-07-13T04:45:53;10.90;;;9.80;;
11677;SDS011;5895;41.950;24.372;2023-07-13T04:48:23;14.68;;;13.27;;
11677;SDS011;5895;41.950;24.372;2023-07-13T04:50:54;14.52;;;12.90;;
11677;SDS011;5895;41.950;24.372;2023-07-13T04:53:22;12.48;;;11.18;;
11677;SDS011;5895;41.950;24.372;2023-07-13T04:55:49;13.73;;;12.38;;
11677;SDS011;5895;41.950;24.372;2023-07-13T04:58:16;9.85;;;8.88;;
11677;SDS011;5895;41.950;24.372;2023-07-13T05:00:44;9.43;;;8.52;;
11677;SDS011;5895;41.950;24.372;2023-07-13T05:03:11;8.13;;;7.13;;
11677;SDS011;5895;41.950;24.372;2023-07-13T05:05:40;7.78;;;7.00;;
11677;SDS011;5895;41.950;24.372;2023-07-13T05:08:07;7.78;;;6.97;;
11677;SDS011;5895;41.950;24.372;2023-07-13T05:10:35;7.30;;;6.60;;
11677;SDS011;5895;41.950;24.372;2023-07-13T05:13:02;8.07;;;6.88;;
11677;SDS011;5895;41.950;24.372;2023-07-13T05:15:29;6.85;;;6.13;;
11677;SDS011;5895;41.950;24.372;2023-07-13T05:17:57;7.68;;;6.63;;
11677;SDS011;5895;41.950;24.372;2023-07-13T05:20:24;6.25;;;5.65;;
11677;SDS011;5895;41.950;24.372;2023-07-13T05:22:53;8.70;;;6.13;;
11677;SDS011;5895;41.950;24.372;2023-07-13T05:25:20;6.97;;;6.20;;
11677;SDS011;5895;41.950;24.372;2023-07-13T05:27:47;8.93;;;6.30;;
11677;SDS011;5895;41.950;24.372;2023-07-13T05:30:14;7.63;;;5.63;;
11677;SDS011;5895;41.950;24.372;2023-07-13T05:32:42;9.43;;;6.72;;
11677;SDS011;5895;41.950;24.372;2023-07-13T05:35:09;6.65;;;5.82;;
11677;SDS011;5895;41.950;24.372;2023-07-13T05:37:37;6.38;;;5.55;;
11677;SDS011;5895;41.950;24.372;2023-07-13T05:40:06;6.35;;;5.53;;
11677;SDS011;5895;41.950;24.372;2023-07-13T05:42:34;6.90;;;5.53;;
11677;SDS011;5895;41.950;24.372;2023-07-13T05:45:02;5.72;;;5.10;;
11677;SDS011;5895;41.950;24.372;2023-07-13T05:47:30;6.50;;;5.40;;
11677;SDS011;5895;41.950;24.372;2023-07-13T05:49:57;6.65;;;5.93;;
11677;SDS011;5895;41.950;24.372;2023-07-13T05:52:25;8.65;;;5.57;;
11677;SDS011;5895;41.950;24.372;2023-07-13T05:54:52;8.23;;;5.80;;
11677;SDS011;5895;41.950;24.372;2023-07-13T05:57:21;7.78;;;5.43;;
11677;SDS011;5895;41.950;24.372;2023-07-13T05:59:48;7.20;;;5.28;;
11677;SDS011;5895;41.950;24.372;2023-07-13T06:02:15;5.72;;;5.15;;
11677;SDS011;5895;41.950;24.372;2023-07-13T06:04:43;8.07;;;5.18;;
11677;SDS011;5895;41.950;24.372;2023-07-13T06:07:10;8.65;;;5.28;;
11677;SDS011;5895;41.950;24.372;2023-07-13T06:09:37;7.40;;;5.88;;
11677;SDS011;5895;41.950;24.372;2023-07-13T06:12:05;6.65;;;5.40;;
11677;SDS011;5895;41.950;24.372;2023-07-13T06:14:34;9.65;;;5.28;;
11677;SDS011;5895;41.950;24.372;2023-07-13T06:17:02;11.05;;;6.05;;
11677;SDS011;5895;41.950;24.372;2023-07-13T06:19:29;6.38;;;5.38;;
11677;SDS011;5895;41.950;24.372;2023-07-13T06:21:57;6.30;;;5.70;;
11677;SDS011;5895;41.950;24.372;2023-07-13T06:24:24;5.75;;;4.80;;
11677;SDS011;5895;41.950;24.372;2023-07-13T06:26:52;7.03;;;5.60;;
11677;SDS011;5895;41.950;24.372;2023-07-13T06:29:19;5.75;;;5.18;;
11677;SDS011;5895;41.950;24.372;2023-07-13T06:31:48;7.63;;;5.18;;
11677;SDS011;5895;41.950;24.372;2023-07-13T06:34:15;6.50;;;5.25;;
11677;SDS011;5895;41.950;24.372;2023-07-13T06:36:43;5.80;;;5.15;;
11677;SDS011;5895;41.950;24.372;2023-07-13T06:39:11;5.97;;;5.38;;
11677;SDS011;5895;41.950;24.372;2023-07-13T06:41:38;5.65;;;5.15;;
11677;SDS011;5895;41.950;24.372;2023-07-13T06:44:05;5.78;;;4.93;;
11677;SDS011;5895;41.950;24.372;2023-07-13T06:46:33;5.35;;;4.70;;
11677;SDS011;5895;41.950;24.372;2023-07-13T06:49:01;6.45;;;5.28;;
11677;SDS011;5895;41.950;24.372;2023-07-13T06:51:29;8.38;;;4.82;;
11677;SDS011;5895;41.950;24.372;2023-07-13T06:53:56;6.20;;;4.85;;
11677;SDS011;5895;41.950;24.372;2023-07-13T06:56:23;4.90;;;4.40;;
11677;SDS011;5895;41.950;24.372;2023-07-13T06:58:51;5.70;;;4.82;;
11677;SDS011;5895;41.950;24.372;2023-07-13T07:01:18;6.03;;;4.82;;
11677;SDS011;5895;41.950;24.372;2023-07-13T07:03:45;10.02;;;5.20;;
11677;SDS011;5895;41.950;24.372;2023-07-13T07:06:15;5.22;;;4.72;;
11677;SDS011;5895;41.950;24.372;2023-07-13T07:08:44;8.38;;;5.18;;
11677;SDS011;5895;41.950;24.372;2023-07-13T07:11:12;5.22;;;4.72;;
11677;SDS011;5895;41.950;24.372;2023-07-13T07:13:41;5.43;;;4.78;;
11677;SDS011;5895;41.950;24.372;2023-07-13T07:16:08;7.50;;;5.10;;
11677;SDS011;5895;41.950;24.372;2023-07-13T07:18:36;5.30;;;4.80;;
11677;SDS011;5895;41.950;24.372;2023-07-13T07:21:03;9.85;;;4.95;;
11677;SDS011;5895;41.950;24.372;2023-07-13T07:23:32;6.65;;;4.80;;
11677;SDS011;5895;41.950;24.372;2023-07-13T07:25:59;7.75;;;4.93;;
11677;SDS011;5895;41.950;24.372;2023-07-13T07:28:26;6.18;;;4.43;;
11677;SDS011;5895;41.950;24.372;2023-07-13T07:30:55;5.30;;;4.43;;
11677;SDS011;5895;41.950;24.372;2023-07-13T07:33:23;4.75;;;4.13;;
11677;SDS011;5895;41.950;24.372;2023-07-13T07:35:50;4.75;;;4.25;;
11677;SDS011;5895;41.950;24.372;2023-07-13T07:38:18;5.53;;;4.30;;
11677;SDS011;5895;41.950;24.372;2023-07-13T07:40:47;7.78;;;4.80;;
11677;SDS011;5895;41.950;24.372;2023-07-13T07:43:14;5.18;;;4.25;;
11677;SDS011;5895;41.950;24.372;2023-07-13T07:45:43;6.13;;;4.47;;
11677;SDS011;5895;41.950;24.372;2023-07-13T07:48:11;6.10;;;4.30;;
11677;SDS011;5895;41.950;24.372;2023-07-13T07:50:38;5.63;;;4.22;;
11677;SDS011;5895;41.950;24.372;2023-07-13T07:53:06;4.28;;;3.55;;
11677;SDS011;5895;41.950;24.372;2023-07-13T07:55:35;6.85;;;4.05;;
11677;SDS011;5895;41.950;24.372;2023-07-13T07:58:04;6.78;;;4.15;;
11677;SDS011;5895;41.950;24.372;2023-07-13T08:00:32;7.75;;;4.50;;
11677;SDS011;5895;41.950;24.372;2023-07-13T08:03:01;4.85;;;4.18;;
11677;SDS011;5895;41.950;24.372;2023-07-13T08:05:28;5.40;;;4.35;;
11677;SDS011;5895;41.950;24.372;2023-07-13T08:07:56;4.15;;;3.67;;
11677;SDS011;5895;41.950;24.372;2023-07-13T08:10:23;4.10;;;3.70;;
11677;SDS011;5895;41.950;24.372;2023-07-13T08:12:51;6.90;;;4.40;;
11677;SDS011;5895;41.950;24.372;2023-07-13T08:15:20;6.40;;;3.58;;
11677;SDS011;5895;41.950;24.372;2023-07-13T08:17:47;4.25;;;3.60;;
11677;SDS011;5895;41.950;24.372;2023-07-13T08:20:16;4.80;;;3.58;;
11677;SDS011;5895;41.950;24.372;2023-07-13T08:22:43;4.32;;;3.92;;
11677;SDS011;5895;41.950;24.372;2023-07-13T08:25:10;5.28;;;3.63;;
11677;SDS011;5895;41.950;24.372;2023-07-13T08:27:37;3.83;;;3.42;;
11677;SDS011;5895;41.950;24.372;2023-07-13T08:30:05;5.80;;;3.78;;
11677;SDS011;5895;41.950;24.372;2023-07-13T08:32:36;5.03;;;3.95;;
11677;SDS011;5895;41.950;24.372;2023-07-13T08:35:04;5.65;;;4.28;;
11677;SDS011;5895;41.950;24.372;2023-07-13T08:37:32;6.38;;;4.15;;
11677;SDS011;5895;41.950;24.372;2023-07-13T08:39:59;8.27;;;4.30;;
11677;SDS011;5895;41.950;24.372;2023-07-13T08:42:32;5.55;;;4.03;;
11677;SDS011;5895;41.950;24.372;2023-07-13T08:45:06;5.82;;;3.83;;
11677;SDS011;5895;41.950;24.372;2023-07-13T08:47:42;4.30;;;3.50;;
11677;SDS011;5895;41.950;24.372;2023-07-13T08:50:14;6.50;;;3.70;;
11677;SDS011;5895;41.950;24.372;2023-07-13T08:52:46;4.90;;;4.25;;
11677;SDS011;5895;41.950;24.372;2023-07-13T08:55:14;5.28;;;4.15;;
11677;SDS011;5895;41.950;24.372;2023-07-13T08:57:45;6.25;;;4.22;;
11677;SDS011;5895;41.950;24.372;2023-07-13T09:00:28;6.53;;;4.00;;
11677;SDS011;5895;41.950;24.372;2023-07-13T09:03:12;8.65;;;4.00;;
11677;SDS011;5895;41.950;24.372;2023-07-13T09:05:48;4.57;;;4.10;;
11677;SDS011;5895;41.950;24.372;2023-07-13T09:08:30;5.15;;;3.92;;
11677;SDS011;5895;41.950;24.372;2023-07-13T09:11:08;5.10;;;4.30;;
11677;SDS011;5895;41.950;24.372;2023-07-13T09:13:50;5.68;;;4.35;;
11677;SDS011;5895;41.950;24.372;2023-07-13T09:16:26;7.60;;;3.90;;
11677;SDS011;5895;41.950;24.372;2023-07-13T09:18:56;6.43;;;4.13;;
11677;SDS011;5895;41.950;24.372;2023-07-13T09:21:29;6.57;;;4.85;;
11677;SDS011;5895;41.950;24.372;2023-07-13T09:23:59;7.30;;;4.22;;
11677;SDS011;5895;41.950;24.372;2023-07-13T09:26:48;6.40;;;4.13;;
11677;SDS011;5895;41.950;24.372;2023-07-13T09:29:18;7.45;;;4.53;;
11677;SDS011;5895;41.950;24.372;2023-07-13T09:31:55;6.78;;;4.45;;
11677;SDS011;5895;41.950;24.372;2023-07-13T09:34:27;6.63;;;4.35;;
11677;SDS011;5895;41.950;24.372;2023-07-13T09:36:56;5.93;;;4.10;;
11677;SDS011;5895;41.950;24.372;2023-07-13T09:39:24;6.40;;;4.60;;
11677;SDS011;5895;41.950;24.372;2023-07-13T09:41:54;9.35;;;4.53;;
11677;SDS011;5895;41.950;24.372;2023-07-13T09:44:29;5.90;;;4.57;;
11677;SDS011;5895;41.950;24.372;2023-07-13T09:46:57;7.22;;;4.13;;
11677;SDS011;5895;41.950;24.372;2023-07-13T09:49:25;4.32;;;3.60;;
11677;SDS011;5895;41.950;24.372;2023-07-13T09:51:58;6.57;;;4.28;;
11677;SDS011;5895;41.950;24.372;2023-07-13T09:54:28;9.27;;;4.65;;
11677;SDS011;5895;41.950;24.372;2023-07-13T09:56:56;5.25;;;4.45;;
11677;SDS011;5895;41.950;24.372;2023-07-13T09:59:27;7.80;;;4.25;;
11677;SDS011;5895;41.950;24.372;2023-07-13T10:01:57;10.07;;;4.82;;
11677;SDS011;5895;41.950;24.372;2023-07-13T10:04:29;5.03;;;4.40;;
11677;SDS011;5895;41.950;24.372;2023-07-13T10:07:05;8.80;;;4.40;;
11677;SDS011;5895;41.950;24.372;2023-07-13T10:09:33;8.02;;;4.70;;
11677;SDS011;5895;41.950;24.372;2023-07-13T10:12:01;5.68;;;4.18;;
11677;SDS011;5895;41.950;24.372;2023-07-13T10:14:28;8.45;;;4.35;;
11677;SDS011;5895;41.950;24.372;2023-07-13T10:16:58;9.77;;;4.28;;
11677;SDS011;5895;41.950;24.372;2023-07-13T10:19:29;8.32;;;4.90;;
11677;SDS011;5895;41.950;24.372;2023-07-13T10:22:02;11.60;;;4.40;;
11677;SDS011;5895;41.950;24.372;2023-07-13T10:24:37;6.07;;;4.50;;
11677;SDS011;5895;41.950;24.372;2023-07-13T10:27:10;6.22;;;4.43;;
11677;SDS011;5895;41.950;24.372;2023-07-13T10:29:45;10.25;;;4.60;;
11677;SDS011;5895;41.950;24.372;2023-07-13T10:32:21;6.28;;;4.20;;
11677;SDS011;5895;41.950;24.372;2023-07-13T10:34:52;9.48;;;4.22;;
11677;SDS011;5895;41.950;24.372;2023-07-13T10:37:21;8.27;;;4.60;;
11677;SDS011;5895;41.950;24.372;2023-07-13T10:39:54;7.72;;;4.57;;
11677;SDS011;5895;41.950;24.372;2023-07-13T10:42:25;7.50;;;4.55;;
11677;SDS011;5895;41.950;24.372;2023-07-13T10:44:55;8.32;;;5.28;;
11677;SDS011;5895;41.950;24.372;2023-07-13T10:47:23;8.07;;;6.10;;
11677;SDS011;5895;41.950;24.372;2023-07-13T10:49:53;7.03;;;5.90;;
11677;SDS011;5895;41.950;24.372;2023-07-13T10:52:40;6.45;;;5.57;;
11677;SDS011;5895;41.950;24.372;2023-07-13T10:57:59;9.65;;;5.80;;
11677;SDS011;5895;41.950;24.372;2023-07-13T11:00:30;6.88;;;6.07;;
11677;SDS011;5895;41.950;24.372;2023-07-13T11:02:58;7.72;;;5.88;;
11677;SDS011;5895;41.950;24.372;2023-07-13T11:05:30;7.88;;;5.88;;
11677;SDS011;5895;41.950;24.372;2023-07-13T11:08:03;7.65;;;6.10;;
11677;SDS011;5895;41.950;24.372;2023-07-13T11:10:47;8.93;;;5.93;;
11677;SDS011;5895;41.950;24.372;2023-07-13T11:19:25;9.10;;;6.03;;
11677;SDS011;5895;41.950;24.372;2023-07-13T11:22:11;7.75;;;5.82;;
11677;SDS011;5895;41.950;24.372;2023-07-13T11:24:57;12.73;;;5.68;;
11677;SDS011;5895;41.950;24.372;2023-07-13T11:30:21;9.48;;;5.55;;
11677;SDS011;5895;41.950;24.372;2023-07-13T11:32:52;8.60;;;5.80;;
11677;SDS011;5895;41.950;24.372;2023-07-13T11:35:32;10.25;;;5.72;;
11677;SDS011;5895;41.950;24.372;2023-07-13T11:38:09;15.45;;;6.38;;
11677;SDS011;5895;41.950;24.372;2023-07-13T11:40:41;8.13;;;5.85;;
11677;SDS011;5895;41.950;24.372;2023-07-13T11:43:12;8.10;;;5.72;;
11677;SDS011;5895;41.950;24.372;2023-07-13T11:45:41;6.88;;;5.28;;
11677;SDS011;5895;41.950;24.372;2023-07-13T11:48:21;11.02;;;5.60;;
11677;SDS011;5895;41.950;24.372;2023-07-13T11:50:51;11.68;;;5.72;;
11677;SDS011;5895;41.950;24.372;2023-07-13T11:53:24;7.75;;;5.40;;
11677;SDS011;5895;41.950;24.372;2023-07-13T11:55:55;10.38;;;5.78;;
11677;SDS011;5895;41.950;24.372;2023-07-13T11:58:24;10.65;;;6.05;;
11677;SDS011;5895;41.950;24.372;2023-07-13T12:00:53;11.32;;;5.43;;
11677;SDS011;5895;41.950;24.372;2023-07-13T12:03:26;36.22;;;7.22;;
11677;SDS011;5895;41.950;24.372;2023-07-13T12:05:58;8.43;;;5.38;;
11677;SDS011;5895;41.950;24.372;2023-07-13T12:08:29;8.10;;;5.20;;
11677;SDS011;5895;41.950;24.372;2023-07-13T12:10:57;7.53;;;5.57;;
11677;SDS011;5895;41.950;24.372;2023-07-13T12:13:27;9.73;;;5.82;;
11677;SDS011;5895;41.950;24.372;2023-07-13T12:15:55;8.82;;;5.40;;
11677;SDS011;5895;41.950;24.372;2023-07-13T12:18:28;8.25;;;4.80;;
11677;SDS011;5895;41.950;24.372;2023-07-13T12:20:59;13.48;;;5.75;;
11677;SDS011;5895;41.950;24.372;2023-07-13T12:23:30;11.15;;;5.43;;
11677;SDS011;5895;41.950;24.372;2023-07-13T12:25:59;10.77;;;5.28;;
11677;SDS011;5895;41.950;24.372;2023-07-13T12:28:31;14.32;;;5.40;;
11677;SDS011;5895;41.950;24.372;2023-07-13T12:31:02;12.27;;;5.45;;
11677;SDS011;5895;41.950;24.372;2023-07-13T12:33:31;8.43;;;5.45;;
11677;SDS011;5895;41.950;24.372;2023-07-13T12:36:00;6.10;;;4.95;;
11677;SDS011;5895;41.950;24.372;2023-07-13T12:38:31;6.82;;;5.28;;
11677;SDS011;5895;41.950;24.372;2023-07-13T12:40:59;7.35;;;5.25;;
11677;SDS011;5895;41.950;24.372;2023-07-13T12:43:29;15.05;;;5.32;;
11677;SDS011;5895;41.950;24.372;2023-07-13T12:46:02;12.10;;;5.70;;
11677;SDS011;5895;41.950;24.372;2023-07-13T12:48:37;11.05;;;5.43;;
11677;SDS011;5895;41.950;24.372;2023-07-13T12:51:08;8.30;;;5.55;;
11677;SDS011;5895;41.950;24.372;2023-07-13T12:53:40;14.45;;;5.05;;
11677;SDS011;5895;41.950;24.372;2023-07-13T12:56:11;11.00;;;5.30;;
11677;SDS011;5895;41.950;24.372;2023-07-13T12:58:46;8.00;;;5.10;;
11677;SDS011;5895;41.950;24.372;2023-07-13T13:01:20;8.63;;;4.82;;
11677;SDS011;5895;41.950;24.372;2023-07-13T13:03:49;11.32;;;5.68;;
11677;SDS011;5895;41.950;24.372;2023-07-13T13:06:22;10.27;;;4.93;;
11677;SDS011;5895;41.950;24.372;2023-07-13T13:08:54;12.55;;;5.20;;
11677;SDS011;5895;41.950;24.372;2023-07-13T13:11:23;11.82;;;5.43;;
11677;SDS011;5895;41.950;24.372;2023-07-13T13:13:52;12.23;;;5.97;;
11677;SDS011;5895;41.950;24.372;2023-07-13T13:16:21;13.77;;;5.10;;
11677;SDS011;5895;41.950;24.372;2023-07-13T13:18:50;9.45;;;5.78;;
11677;SDS011;5895;41.950;24.372;2023-07-13T13:21:20;9.70;;;5.50;;
11677;SDS011;5895;41.950;24.372;2023-07-13T13:23:48;10.70;;;5.40;;
11677;SDS011;5895;41.950;24.372;2023-07-13T13:26:19;14.73;;;5.18;;
11677;SDS011;5895;41.950;24.372;2023-07-13T13:28:51;13.05;;;5.90;;
11677;SDS011;5895;41.950;24.372;2023-07-13T13:31:19;11.60;;;6.40;;
11677;SDS011;5895;41.950;24.372;2023-07-13T13:33:46;12.68;;;5.75;;
11677;SDS011;5895;41.950;24.372;2023-07-13T13:36:14;17.95;;;5.97;;
11677;SDS011;5895;41.950;24.372;2023-07-13T13:38:43;10.80;;;5.57;;
11677;SDS011;5895;41.950;24.372;2023-07-13T13:41:11;10.63;;;6.28;;
11677;SDS011;5895;41.950;24.372;2023-07-13T13:43:42;7.60;;;4.97;;
11677;SDS011;5895;41.950;24.372;2023-07-13T13:46:14;13.30;;;5.60;;
11677;SDS011;5895;41.950;24.372;2023-07-13T13:48:44;10.00;;;4.68;;
11677;SDS011;5895;41.950;24.372;2023-07-13T13:51:13;12.95;;;5.57;;
11677;SDS011;5895;41.950;24.372;2023-07-13T13:53:43;27.25;;;6.45;;
11677;SDS011;5895;41.950;24.372;2023-07-13T13:56:10;10.27;;;5.47;;
11677;SDS011;5895;41.950;24.372;2023-07-13T13:58:38;12.55;;;5.32;;
11677;SDS011;5895;41.950;24.372;2023-07-13T14:01:10;11.93;;;5.40;;
11677;SDS011;5895;41.950;24.372;2023-07-13T14:03:39;11.23;;;5.38;;
11677;SDS011;5895;41.950;24.372;2023-07-13T14:06:08;30.33;;;6.10;;
11677;SDS011;5895;41.950;24.372;2023-07-13T14:08:38;14.93;;;5.10;;
11677;SDS011;5895;41.950;24.372;2023-07-13T14:11:05;13.20;;;5.30;;
11677;SDS011;5895;41.950;24.372;2023-07-13T14:13:38;17.00;;;5.45;;
11677;SDS011;5895;41.950;24.372;2023-07-13T14:16:12;20.48;;;6.00;;
11677;SDS011;5895;41.950;24.372;2023-07-13T14:18:44;13.02;;;5.22;;
11677;SDS011;5895;41.950;24.372;2023-07-13T14:21:12;16.08;;;5.55;;
11677;SDS011;5895;41.950;24.372;2023-07-13T14:23:41;13.00;;;5.40;;
11677;SDS011;5895;41.950;24.372;2023-07-13T14:26:09;11.57;;;4.65;;
11677;SDS011;5895;41.950;24.372;2023-07-13T14:28:40;15.05;;;5.93;;
11677;SDS011;5895;41.950;24.372;2023-07-13T14:31:09;15.18;;;5.55;;
11677;SDS011;5895;41.950;24.372;2023-07-13T14:33:38;15.73;;;5.10;;
11677;SDS011;5895;41.950;24.372;2023-07-13T14:36:09;13.18;;;5.20;;
11677;SDS011;5895;41.950;24.372;2023-07-13T14:38:49;12.65;;;5.20;;
11677;SDS011;5895;41.950;24.372;2023-07-13T14:41:16;9.20;;;5.63;;
11677;SDS011;5895;41.950;24.372;2023-07-13T14:43:43;11.02;;;4.97;;
11677;SDS011;5895;41.950;24.372;2023-07-13T14:46:12;19.33;;;5.80;;
11677;SDS011;5895;41.950;24.372;2023-07-13T14:48:58;11.23;;;5.22;;
11677;SDS011;5895;41.950;24.372;2023-07-13T14:51:29;10.80;;;5.35;;
11677;SDS011;5895;41.950;24.372;2023-07-13T14:53:58;15.52;;;5.10;;
11677;SDS011;5895;41.950;24.372;2023-07-13T14:56:27;13.13;;;5.78;;
11677;SDS011;5895;41.950;24.372;2023-07-13T14:58:54;19.83;;;5.57;;
11677;SDS011;5895;41.950;24.372;2023-07-13T15:01:22;15.38;;;5.15;;
11677;SDS011;5895;41.950;24.372;2023-07-13T15:03:50;16.80;;;5.78;;
11677;SDS011;5895;41.950;24.372;2023-07-13T15:06:20;17.67;;;5.90;;
11677;SDS011;5895;41.950;24.372;2023-07-13T15:08:47;18.92;;;5.97;;
11677;SDS011;5895;41.950;24.372;2023-07-13T15:11:15;12.10;;;5.38;;
11677;SDS011;5895;41.950;24.372;2023-07-13T15:13:43;8.60;;;5.03;;